createdAt,value
2022-09-12T00:01:38.768Z,6.27
2022-09-12T00:04:05.597Z,6.40
2022-09-12T00:06:36.928Z,5.97
2022-09-12T00:09:09.400Z,5.40
2022-09-12T00:11:43.270Z,5.67
2022-09-12T00:14:13.086Z,5.40
2022-09-12T00:16:40.245Z,4.57
2022-09-12T00:19:07.920Z,4.70
2022-09-12T00:21:37.014Z,5.53
2022-09-12T00:24:04.525Z,5.77
2022-09-12T00:26:31.763Z,6.03
2022-09-12T00:28:58.599Z,5.87
2022-09-12T00:31:26.562Z,5.70
2022-09-12T00:33:55.875Z,6.60
2022-09-12T00:36:24.946Z,7.47
2022-09-12T00:38:52.340Z,6.90
2022-09-12T00:41:24.292Z,7.80
2022-09-12T00:43:54.328Z,8.07
2022-09-12T00:46:32.976Z,7.10
2022-09-12T00:49:14.132Z,6.83
2022-09-12T00:51:48.732Z,6.73
2022-09-12T00:54:20.953Z,7.03
2022-09-12T00:56:50.026Z,7.30
2022-09-12T00:59:29.471Z,7.57
2022-09-12T01:01:56.812Z,6.97
2022-09-12T01:04:26.145Z,6.97
2022-09-12T01:06:54.501Z,7.53
2022-09-12T01:09:23.348Z,7.77
2022-09-12T01:11:51.624Z,8.37
2022-09-12T01:14:19.430Z,7.73
2022-09-12T01:16:48.623Z,7.50
2022-09-12T01:19:15.371Z,7.77
2022-09-12T01:22:09.580Z,7.53
2022-09-12T01:25:12.653Z,7.10
2022-09-12T01:27:58.223Z,7.70
2022-09-12T01:30:47.994Z,8.70
2022-09-12T01:33:23.723Z,6.60
2022-09-12T01:36:15.601Z,7.77
2022-09-12T01:39:00.435Z,7.47
2022-09-12T01:41:30.450Z,8.17
2022-09-12T01:44:30.788Z,8.70
2022-09-12T01:47:34.134Z,8.77
2022-09-12T01:50:09.169Z,7.80
2022-09-12T01:52:42.484Z,7.83
2022-09-12T01:55:19.170Z,8.60
2022-09-12T01:57:54.795Z,8.53
2022-09-12T02:00:21.888Z,9.20
2022-09-12T02:03:15.207Z,8.67
2022-09-12T02:05:53.009Z,8.73
2022-09-12T02:08:25.965Z,9.53
2022-09-12T02:10:55.591Z,8.07
2022-09-12T02:13:32.476Z,8.90
2022-09-12T02:16:08.769Z,7.67
2022-09-12T02:18:44.559Z,9.53
2022-09-12T02:21:11.609Z,9.53
2022-09-12T02:23:43.584Z,8.60
2022-09-12T02:26:24.093Z,7.80
2022-09-12T02:28:51.018Z,7.43
2022-09-12T02:31:23.710Z,7.30
2022-09-12T02:34:16.350Z,8.53
2022-09-12T02:37:05.803Z,8.50
2022-09-12T02:39:33.376Z,8.90
2022-09-12T02:42:01.866Z,7.90
2022-09-12T02:44:29.825Z,7.30
2022-09-12T02:47:03.657Z,8.30
2022-09-12T02:49:30.702Z,7.47
2022-09-12T02:51:57.654Z,8.00
2022-09-12T02:54:25.134Z,8.50
2022-09-12T02:56:52.087Z,7.63
2022-09-12T02:59:21.955Z,6.33
2022-09-12T03:02:16.616Z,7.93
2022-09-12T03:04:55.417Z,7.37
2022-09-12T03:07:46.986Z,9.17
2022-09-12T03:10:36.778Z,7.17
2022-09-12T03:13:22.145Z,7.90
2022-09-12T03:16:04.343Z,8.33
2022-09-12T03:18:51.381Z,7.17
2022-09-12T03:21:33.586Z,9.50
2022-09-12T03:24:17.910Z,9.17
2022-09-12T03:26:58.757Z,7.90
2022-09-12T03:29:27.417Z,7.47
2022-09-12T03:31:58.574Z,8.20
2022-09-12T03:34:27.554Z,8.97
2022-09-12T03:36:58.184Z,9.13
2022-09-12T03:39:26.843Z,8.67
2022-09-12T03:41:54.664Z,7.30
2022-09-12T03:44:21.626Z,7.13
2022-09-12T03:46:48.417Z,9.37
2022-09-12T03:49:15.301Z,8.07
2022-09-12T03:51:43.254Z,9.37
2022-09-12T03:54:11.083Z,9.67
2022-09-12T03:56:37.967Z,7.97
2022-09-12T03:59:08.133Z,7.93
2022-09-12T04:01:34.992Z,8.70
2022-09-12T04:04:01.968Z,8.17
2022-09-12T04:06:28.872Z,9.37
2022-09-12T04:08:55.839Z,9.17
2022-09-12T04:11:23.722Z,9.73
2022-09-12T04:13:50.789Z,8.83
2022-09-12T04:16:18.148Z,9.90
2022-09-12T04:18:46.045Z,9.10
2022-09-12T04:21:18.754Z,9.80
2022-09-12T04:23:45.717Z,12.00
2022-09-12T04:26:13.882Z,10.13
2022-09-12T04:28:41.383Z,10.17
2022-09-12T04:31:15.594Z,11.53
2022-09-12T04:33:42.723Z,10.37
2022-09-12T04:36:14.427Z,10.40
2022-09-12T04:38:41.360Z,10.33
2022-09-12T04:41:18.734Z,12.40
2022-09-12T04:43:46.589Z,9.60
2022-09-12T04:46:15.586Z,10.20
2022-09-12T04:48:43.332Z,11.00
2022-09-12T04:51:12.486Z,10.20
2022-09-12T04:53:40.339Z,9.50
2022-09-12T04:56:10.073Z,8.10
2022-09-12T04:58:37.488Z,9.93
2022-09-12T05:01:06.362Z,9.93
2022-09-12T05:03:33.454Z,10.27
2022-09-12T05:06:03.597Z,10.53
2022-09-12T05:08:30.470Z,10.30
2022-09-12T05:11:01.653Z,9.57
2022-09-12T05:13:28.513Z,10.43
2022-09-12T05:16:00.018Z,10.97
2022-09-12T05:18:27.180Z,10.93
2022-09-12T05:20:55.060Z,10.60
2022-09-12T05:23:22.438Z,8.93
2022-09-12T05:25:53.503Z,10.73
2022-09-12T05:28:21.315Z,9.67
2022-09-12T05:30:48.838Z,9.60
2022-09-12T05:33:16.203Z,10.57
2022-09-12T05:35:50.775Z,9.73
2022-09-12T05:38:17.905Z,10.93
2022-09-12T05:40:44.758Z,11.40
2022-09-12T05:43:12.509Z,11.83
2022-09-12T05:45:41.329Z,12.30
2022-09-12T05:48:08.314Z,12.77
2022-09-12T05:50:35.047Z,13.03
2022-09-12T05:53:01.800Z,9.57
2022-09-12T05:55:29.301Z,11.07
2022-09-12T05:57:56.164Z,11.87
2022-09-12T06:00:22.900Z,10.20
2022-09-12T06:02:56.178Z,8.50
2022-09-12T06:05:22.922Z,8.40
2022-09-12T06:07:49.691Z,8.03
2022-09-12T06:10:17.909Z,10.17
2022-09-12T06:12:44.714Z,10.43
2022-09-12T06:15:11.713Z,10.33
2022-09-12T06:17:38.596Z,10.60
2022-09-12T06:20:05.737Z,10.70
2022-09-12T06:22:33.733Z,10.07
2022-09-12T06:25:00.473Z,10.73
2022-09-12T06:27:27.323Z,10.73
2022-09-12T06:29:54.097Z,10.80
2022-09-12T06:32:20.876Z,10.47
2022-09-12T06:34:48.470Z,10.23
2022-09-12T06:37:15.274Z,10.27
2022-09-12T06:39:42.285Z,10.03
2022-09-12T06:42:09.092Z,10.90
2022-09-12T06:44:35.867Z,10.77
2022-09-12T06:47:05.246Z,9.13
2022-09-12T06:49:32.046Z,9.27
2022-09-12T06:51:58.863Z,8.33
2022-09-12T06:54:27.046Z,11.00
2022-09-12T06:56:53.800Z,9.47
2022-09-12T06:59:25.123Z,9.80
2022-09-12T07:01:52.020Z,9.33
2022-09-12T07:04:19.912Z,9.80
2022-09-12T07:06:46.711Z,8.63
2022-09-12T07:09:17.680Z,10.67
2022-09-12T07:11:45.671Z,9.10
2022-09-12T07:14:14.189Z,9.43
2022-09-12T07:16:41.451Z,8.60
2022-09-12T07:19:08.729Z,8.47
2022-09-12T07:21:42.240Z,9.03
2022-09-12T07:24:10.792Z,9.00
2022-09-12T07:26:40.070Z,8.10
2022-09-12T07:29:34.737Z,8.17
2022-09-12T07:31:54.732Z,9.73
2022-09-12T07:34:21.530Z,9.33
2022-09-12T07:36:48.331Z,9.50
2022-09-12T07:39:15.176Z,9.17
2022-09-12T07:41:42.001Z,9.33
2022-09-12T07:44:08.816Z,9.10
2022-09-12T07:46:35.624Z,9.80
2022-09-12T07:49:02.957Z,10.67
2022-09-12T07:51:31.457Z,10.20
2022-09-12T07:53:58.850Z,10.73
2022-09-12T07:56:30.195Z,10.47
2022-09-12T07:58:59.029Z,9.97
2022-09-12T08:01:26.439Z,10.57
2022-09-12T08:03:58.401Z,10.03
2022-09-12T08:06:26.562Z,10.57
2022-09-12T08:08:55.910Z,10.73
2022-09-12T08:11:25.101Z,11.00
2022-09-12T08:13:55.720Z,10.27
2022-09-12T08:16:28.376Z,10.63
2022-09-12T08:18:55.327Z,11.67
2022-09-12T08:21:24.719Z,11.23
2022-09-12T08:24:00.863Z,11.52
2022-09-12T08:26:28.281Z,12.85
2022-09-12T08:28:55.696Z,13.30
2022-09-12T08:31:24.359Z,13.55
2022-09-12T08:33:51.827Z,12.98
2022-09-12T08:36:21.367Z,12.27
2022-09-12T08:38:50.239Z,13.15
2022-09-12T08:41:30.872Z,14.23
2022-09-12T08:44:14.796Z,16.40
2022-09-12T08:47:06.310Z,15.55
2022-09-12T08:49:38.037Z,15.15
2022-09-12T08:52:17.300Z,16.02
2022-09-12T08:54:45.577Z,15.25
2022-09-12T08:57:15.488Z,14.65
2022-09-12T08:59:44.922Z,17.10
2022-09-12T09:02:30.620Z,15.10
2022-09-12T09:05:32.449Z,14.80
2022-09-12T09:08:02.264Z,14.75
2022-09-12T09:10:31.866Z,13.68
2022-09-12T09:13:51.409Z,15.73
2022-09-12T09:16:36.213Z,16.20
2022-09-12T09:19:09.458Z,13.43
2022-09-12T09:21:43.345Z,11.63
2022-09-12T09:24:13.341Z,11.40
2022-09-12T09:26:46.770Z,12.00
2022-09-12T09:29:28.030Z,11.98
2022-09-12T09:31:58.199Z,14.57
2022-09-12T09:34:29.179Z,14.45
2022-09-12T09:37:19.062Z,14.93
2022-09-12T09:40:18.092Z,15.88
2022-09-12T09:43:02.901Z,13.07
2022-09-12T09:45:29.858Z,13.05
2022-09-12T09:48:03.536Z,13.02
2022-09-12T09:50:30.341Z,13.80
2022-09-12T09:52:59.999Z,14.65
2022-09-12T09:55:34.664Z,13.45
2022-09-12T09:58:01.543Z,13.85
2022-09-12T10:00:37.446Z,12.48
2022-09-12T10:03:13.731Z,14.48
2022-09-12T10:06:02.854Z,13.55
2022-09-12T10:08:35.724Z,11.95
2022-09-12T10:11:02.566Z,12.85
2022-09-12T10:13:48.192Z,12.93
2022-09-12T10:16:20.103Z,12.38
2022-09-12T10:18:47.173Z,11.02
2022-09-12T10:21:22.502Z,10.52
2022-09-12T10:24:00.085Z,9.60
2022-09-12T10:26:31.665Z,8.68
2022-09-12T10:29:14.216Z,9.07
2022-09-12T10:32:05.679Z,8.13
2022-09-12T10:34:46.242Z,8.63
2022-09-12T10:37:18.739Z,8.52
2022-09-12T10:39:53.582Z,7.65
2022-09-12T10:42:42.389Z,8.43
2022-09-12T10:45:25.764Z,6.65
2022-09-12T10:47:54.361Z,7.70
2022-09-12T10:50:50.731Z,6.13
2022-09-12T10:53:42.498Z,6.88
2022-09-12T10:56:22.910Z,7.43
2022-09-12T10:58:55.718Z,6.35
2022-09-12T11:01:48.738Z,5.85
2022-09-12T11:04:47.830Z,5.95
2022-09-12T11:07:40.579Z,6.30
2022-09-12T11:10:57.006Z,5.88
2022-09-12T11:13:42.892Z,5.53
2022-09-12T11:16:19.985Z,5.35
2022-09-12T11:19:19.367Z,4.50
2022-09-12T11:22:02.102Z,5.65
2022-09-12T11:24:38.199Z,6.60
2022-09-12T11:27:08.013Z,5.93
2022-09-12T11:29:46.996Z,5.13
2022-09-12T11:32:40.823Z,6.80
2022-09-12T11:35:29.625Z,6.35
2022-09-12T11:38:21.813Z,5.97
2022-09-12T11:40:57.028Z,6.30
2022-09-12T11:43:42.067Z,5.63
2022-09-12T11:46:21.437Z,5.38
2022-09-12T11:49:13.543Z,5.22
2022-09-12T11:51:50.988Z,5.20
2022-09-12T11:54:23.980Z,3.92
2022-09-12T11:56:58.780Z,4.20
2022-09-12T11:59:54.530Z,4.55
2022-09-12T12:02:30.511Z,4.25
2022-09-12T12:05:38.883Z,4.22
2022-09-12T12:08:06.787Z,5.07
2022-09-12T12:10:41.160Z,4.40
2022-09-12T12:13:29.711Z,4.85
2022-09-12T12:16:21.504Z,3.63
2022-09-12T12:19:07.513Z,4.95
2022-09-12T12:21:51.210Z,4.35
2022-09-12T12:24:25.053Z,4.50
2022-09-12T12:27:04.891Z,3.63
2022-09-12T12:29:31.771Z,4.90
2022-09-12T12:32:04.358Z,4.63
2022-09-12T12:34:42.436Z,4.65
2022-09-12T12:37:21.576Z,4.10
2022-09-12T12:39:48.586Z,4.60
2022-09-12T12:42:36.503Z,4.43
2022-09-12T12:45:23.303Z,4.40
2022-09-12T12:48:13.940Z,4.00
2022-09-12T12:50:40.952Z,3.72
2022-09-12T12:53:27.795Z,4.60
2022-09-12T12:55:56.287Z,3.92
2022-09-12T12:58:37.453Z,4.60
2022-09-12T13:01:07.000Z,4.28
2022-09-12T13:03:34.457Z,4.10
2022-09-12T13:06:05.430Z,4.60
2022-09-12T13:08:34.572Z,4.50
2022-09-12T13:11:27.160Z,4.13
2022-09-12T13:14:01.006Z,3.40
2022-09-12T13:16:53.651Z,3.63
2022-09-12T13:19:34.200Z,3.60
2022-09-12T13:22:06.835Z,3.55
2022-09-12T13:24:35.057Z,5.43
2022-09-12T13:27:02.258Z,3.38
2022-09-12T13:29:29.292Z,3.70
2022-09-12T13:32:01.285Z,3.20
2022-09-12T13:34:31.283Z,3.70
2022-09-12T13:37:19.471Z,3.92
2022-09-12T13:40:05.569Z,3.78
2022-09-12T13:42:35.296Z,3.28
2022-09-12T13:45:14.476Z,2.67
2022-09-12T13:47:46.470Z,2.70
2022-09-12T13:50:27.734Z,2.38
2022-09-12T13:53:23.233Z,2.63
2022-09-12T13:55:55.270Z,3.00
2022-09-12T13:58:31.820Z,2.90
2022-09-12T14:01:10.589Z,3.35
2022-09-12T14:04:01.014Z,3.10
2022-09-12T14:06:28.472Z,3.30
2022-09-12T14:09:01.434Z,2.80
2022-09-12T14:11:30.774Z,3.03
2022-09-12T14:13:58.309Z,3.42
2022-09-12T14:16:29.030Z,3.42
2022-09-12T14:18:56.331Z,3.30
2022-09-12T14:21:32.128Z,3.58
2022-09-12T14:24:00.743Z,3.75
2022-09-12T14:26:32.440Z,3.60
2022-09-12T14:29:00.501Z,3.95
2022-09-12T14:31:33.074Z,3.80
2022-09-12T14:34:18.014Z,3.60
2022-09-12T14:36:56.329Z,3.20
2022-09-12T14:39:23.427Z,3.72
2022-09-12T14:42:00.106Z,3.53
2022-09-12T14:44:29.532Z,3.40
2022-09-12T14:47:16.068Z,3.58
2022-09-12T14:49:43.341Z,2.90
2022-09-12T14:52:23.666Z,3.72
2022-09-12T14:55:04.413Z,4.00
2022-09-12T14:57:41.107Z,3.63
2022-09-12T15:00:14.327Z,4.18
2022-09-12T15:02:44.928Z,4.00
2022-09-12T15:05:11.686Z,3.40
2022-09-12T15:07:41.320Z,4.13
2022-09-12T15:10:22.873Z,4.25
2022-09-12T15:12:49.704Z,4.28
2022-09-12T15:15:19.977Z,4.13
2022-09-12T15:17:47.234Z,4.22
2022-09-12T15:20:14.819Z,4.20
2022-09-12T15:22:42.643Z,3.72
2022-09-12T15:25:12.566Z,4.32
2022-09-12T15:27:40.987Z,3.97
2022-09-12T15:30:10.315Z,3.67
2022-09-12T15:32:37.533Z,3.58
2022-09-12T15:35:10.205Z,3.60
2022-09-12T15:37:36.999Z,4.28
2022-09-12T15:40:05.221Z,3.95
2022-09-12T15:42:32.171Z,4.15
2022-09-12T15:45:02.503Z,3.22
2022-09-12T15:47:29.716Z,3.63
2022-09-12T15:49:56.585Z,3.80
2022-09-12T15:52:23.392Z,3.72
2022-09-12T15:54:50.151Z,3.00
2022-09-12T15:57:17.007Z,3.40
2022-09-12T15:59:43.899Z,3.40
2022-09-12T16:02:24.559Z,3.75
2022-09-12T16:04:54.671Z,3.72
2022-09-12T16:07:21.664Z,3.15
2022-09-12T16:09:48.506Z,3.40
2022-09-12T16:12:15.285Z,3.20
2022-09-12T16:14:42.058Z,3.30
2022-09-12T16:17:09.363Z,3.65
2022-09-12T16:19:36.215Z,3.42
2022-09-12T16:22:03.061Z,3.20
2022-09-12T16:24:29.848Z,3.05
2022-09-12T16:27:00.525Z,3.10
2022-09-12T16:29:29.438Z,3.47
2022-09-12T16:31:56.342Z,3.28
2022-09-12T16:34:23.321Z,3.75
2022-09-12T16:36:50.329Z,3.10
2022-09-12T16:39:17.296Z,3.58
2022-09-12T16:41:44.206Z,3.03
2022-09-12T16:44:11.201Z,3.60
2022-09-12T16:46:38.085Z,3.20
2022-09-12T16:49:06.162Z,3.22
2022-09-12T16:51:35.992Z,3.17
2022-09-12T16:54:02.976Z,3.40
2022-09-12T16:56:30.157Z,3.47
2022-09-12T16:58:57.092Z,2.97
2022-09-12T17:01:26.085Z,3.42
2022-09-12T17:03:57.575Z,3.60
2022-09-12T17:06:25.836Z,3.47
2022-09-12T17:08:55.165Z,3.20
2022-09-12T17:11:30.909Z,3.78
2022-09-12T17:14:07.110Z,4.03
2022-09-12T17:16:36.651Z,3.58
2022-09-12T17:19:04.876Z,3.38
2022-09-12T17:21:31.921Z,3.63
2022-09-12T17:23:59.313Z,3.42
2022-09-12T17:26:26.804Z,3.63
2022-09-12T17:28:53.660Z,3.75
2022-09-12T17:31:20.776Z,3.67
2022-09-12T17:33:47.861Z,3.80
2022-09-12T17:38:58.303Z,3.65
2022-09-12T17:41:28.066Z,4.13
2022-09-12T17:43:59.618Z,3.72
2022-09-12T17:46:37.867Z,4.38
2022-09-12T17:49:12.303Z,3.80
2022-09-12T17:51:40.370Z,4.75
2022-09-12T17:54:11.852Z,4.90
2022-09-12T17:56:39.426Z,4.95
2022-09-12T17:59:08.520Z,4.68
2022-09-12T18:01:54.262Z,4.80
2022-09-12T18:04:21.203Z,4.80
2022-09-12T18:06:49.253Z,4.93
2022-09-12T18:09:19.660Z,5.43
2022-09-12T18:11:46.988Z,5.35
2022-09-12T18:14:14.585Z,5.88
2022-09-12T18:16:42.169Z,6.28
2022-09-12T18:19:09.635Z,6.60
2022-09-12T18:21:36.810Z,8.15
2022-09-12T18:24:04.173Z,7.68
2022-09-12T18:26:31.742Z,7.03
2022-09-12T18:28:59.133Z,7.03
2022-09-12T18:31:28.924Z,6.78
2022-09-12T18:33:57.301Z,7.97
2022-09-12T18:36:24.593Z,8.18
2022-09-12T18:38:52.245Z,7.33
2022-09-12T18:41:21.887Z,6.60
2022-09-12T18:43:53.318Z,6.80
2022-09-12T18:46:20.166Z,6.37
2022-09-12T18:48:48.068Z,7.13
2022-09-12T18:51:20.625Z,7.30
2022-09-12T18:53:53.241Z,6.97
2022-09-12T18:56:21.094Z,6.70
2022-09-12T18:58:53.551Z,6.80
2022-09-12T19:01:23.104Z,6.93
2022-09-12T19:03:50.395Z,7.17
2022-09-12T19:06:20.141Z,7.33
2022-09-12T19:08:47.951Z,7.27
2022-09-12T19:11:15.651Z,6.80
2022-09-12T19:13:44.879Z,7.23
2022-09-12T19:16:14.418Z,7.20
2022-09-12T19:18:41.841Z,7.30
2022-09-12T19:21:23.151Z,7.77
2022-09-12T19:23:51.433Z,7.60
2022-09-12T19:26:19.613Z,7.43
2022-09-12T19:28:46.641Z,7.50
2022-09-12T19:31:15.932Z,7.53
2022-09-12T19:33:42.912Z,7.40
2022-09-12T19:36:33.758Z,7.43
2022-09-12T19:39:00.161Z,8.70
2022-09-12T19:41:27.051Z,8.87
2022-09-12T19:43:56.181Z,8.57
2022-09-12T19:46:24.550Z,8.07
2022-09-12T19:48:52.655Z,7.90
2022-09-12T19:51:21.409Z,7.80
2022-09-12T19:53:50.288Z,8.63
2022-09-12T19:56:17.688Z,9.13
2022-09-12T19:58:48.258Z,8.47
2022-09-12T20:01:20.110Z,8.63
2022-09-12T20:03:47.442Z,8.43
2022-09-12T20:06:17.118Z,8.13
2022-09-12T20:08:44.094Z,7.83
2022-09-12T20:11:13.800Z,8.70
2022-09-12T20:13:41.523Z,10.07
2022-09-12T20:16:21.316Z,10.93
2022-09-12T20:18:55.206Z,11.13
2022-09-12T20:21:31.916Z,11.27
2022-09-12T20:24:08.964Z,12.00
2022-09-12T20:26:36.740Z,11.80
2022-09-12T20:29:05.237Z,11.60
2022-09-12T20:31:33.438Z,9.70
2022-09-12T20:34:00.651Z,9.87
2022-09-12T20:36:27.976Z,8.87
2022-09-12T20:39:01.457Z,9.27
2022-09-12T20:41:30.554Z,8.60
2022-09-12T20:43:58.360Z,9.03
2022-09-12T20:46:27.991Z,8.90
2022-09-12T20:48:55.281Z,10.27
2022-09-12T20:51:23.000Z,8.93
2022-09-12T20:53:54.427Z,8.97
2022-09-12T20:56:22.761Z,9.07
2022-09-12T20:58:49.984Z,9.30
2022-09-12T21:01:17.460Z,9.23
2022-09-12T21:03:46.992Z,8.43
2022-09-12T21:06:20.018Z,8.83
2022-09-12T21:08:48.787Z,9.33
2022-09-12T21:11:16.916Z,8.73
2022-09-12T21:13:44.358Z,8.73
2022-09-12T21:16:14.413Z,8.83
2022-09-12T21:18:41.460Z,8.50
2022-09-12T21:21:09.885Z,8.23
2022-09-12T21:23:36.717Z,8.30
2022-09-12T21:26:04.116Z,8.73
2022-09-12T21:28:31.045Z,8.77
2022-09-12T21:30:58.161Z,8.70
2022-09-12T21:33:25.010Z,9.30
2022-09-12T21:35:51.822Z,8.87
2022-09-12T21:38:19.501Z,9.00
2022-09-12T21:40:47.691Z,7.93
2022-09-12T21:43:14.657Z,8.10
2022-09-12T21:45:41.852Z,9.13
2022-09-12T21:48:08.648Z,8.90
2022-09-12T21:50:35.514Z,8.97
2022-09-12T21:53:02.286Z,10.03
2022-09-12T21:55:29.266Z,9.00
2022-09-12T21:57:56.343Z,10.10
2022-09-12T22:00:23.679Z,9.67
2022-09-12T22:02:50.432Z,8.90
2022-09-12T22:05:20.387Z,9.20
2022-09-12T22:07:47.220Z,9.07
2022-09-12T22:10:14.088Z,9.43
2022-09-12T22:12:45.956Z,8.50
2022-09-12T22:15:39.085Z,8.83
2022-09-12T22:18:00.591Z,8.60
2022-09-12T22:20:27.444Z,7.90
2022-09-12T22:23:12.736Z,8.83
2022-09-12T22:25:39.969Z,9.10
2022-09-12T22:28:07.097Z,9.37
2022-09-12T22:30:34.009Z,8.40
2022-09-12T22:33:00.959Z,8.33
2022-09-12T22:35:27.738Z,8.87
2022-09-12T22:37:54.500Z,7.87
2022-09-12T22:40:21.788Z,7.53
2022-09-12T22:42:52.681Z,7.10
2022-09-12T22:45:20.271Z,7.33
2022-09-12T22:47:47.297Z,7.00
2022-09-12T22:50:14.544Z,7.53
2022-09-12T22:52:41.690Z,7.70
2022-09-12T22:55:10.930Z,8.57
2022-09-12T22:57:40.716Z,8.50
2022-09-12T23:00:10.552Z,8.30
2022-09-12T23:02:38.595Z,8.47
2022-09-12T23:05:06.166Z,8.47
2022-09-12T23:07:34.084Z,9.37
2022-09-12T23:10:01.182Z,8.33
2022-09-12T23:12:28.047Z,8.70
2022-09-12T23:14:54.870Z,9.37
2022-09-12T23:17:22.116Z,9.43
2022-09-12T23:19:49.049Z,8.50
2022-09-12T23:22:16.090Z,8.63
2022-09-12T23:24:42.964Z,8.73
2022-09-12T23:27:10.508Z,7.77
2022-09-12T23:29:37.276Z,7.90
2022-09-12T23:32:05.001Z,7.90
2022-09-12T23:34:32.670Z,8.13
2022-09-12T23:37:00.174Z,8.20
2022-09-12T23:39:26.947Z,8.87
2022-09-12T23:41:53.705Z,8.90
2022-09-12T23:44:20.476Z,8.13
2022-09-12T23:46:47.252Z,8.50
2022-09-12T23:49:14.014Z,8.03
2022-09-12T23:51:40.853Z,7.97
2022-09-12T23:54:08.682Z,8.40
2022-09-12T23:56:35.522Z,8.70
2022-09-12T23:59:02.422Z,8.63
